createdAt,value
2018-04-14T00:01:23.666Z,43.23
2018-04-14T00:03:51.892Z,48.97
2018-04-14T00:06:20.929Z,46.43
2018-04-14T00:08:49.211Z,46.33
2018-04-14T00:11:17.488Z,46.30
2018-04-14T00:13:46.480Z,46.37
2018-04-14T00:16:14.780Z,47.10
2018-04-14T00:18:43.028Z,46.73
2018-04-14T00:21:11.295Z,47.20
2018-04-14T00:23:42.392Z,48.67
2018-04-14T00:26:10.669Z,47.43
2018-04-14T00:28:38.931Z,46.80
2018-04-14T00:31:07.213Z,44.43
2018-04-14T00:33:35.536Z,46.80
2018-04-14T00:36:03.778Z,47.07
2018-04-14T00:38:32.111Z,46.20
2018-04-14T00:41:00.436Z,43.67
2018-04-14T00:43:28.714Z,43.10
2018-04-14T00:45:57.002Z,47.00
2018-04-14T00:48:26.062Z,45.13
2018-04-14T00:50:55.163Z,45.53
2018-04-14T00:53:36.122Z,47.67
2018-04-14T00:56:04.387Z,47.17
2018-04-14T00:58:32.651Z,46.93
2018-04-14T01:01:00.904Z,43.70
2018-04-14T01:03:29.195Z,40.90
2018-04-14T01:05:57.459Z,44.50
2018-04-14T01:08:26.757Z,45.77
2018-04-14T01:10:55.052Z,49.93
2018-04-14T01:13:23.320Z,54.93
2018-04-14T01:15:52.327Z,46.90
2018-04-14T01:18:20.582Z,48.50
2018-04-14T01:20:48.857Z,50.23
2018-04-14T01:23:17.288Z,43.77
2018-04-14T01:25:45.643Z,42.87
2018-04-14T01:28:14.652Z,45.63
2018-04-14T01:30:42.929Z,40.57
2018-04-14T01:33:11.183Z,41.43
2018-04-14T01:35:40.256Z,44.93
2018-04-14T01:38:09.583Z,44.77
2018-04-14T01:40:37.900Z,45.47
2018-04-14T01:43:06.189Z,49.03
2018-04-14T01:45:34.460Z,46.10
2018-04-14T01:48:02.762Z,50.17
2018-04-14T01:50:31.029Z,41.97
2018-04-14T01:52:59.288Z,50.47
2018-04-14T01:55:28.314Z,48.60
2018-04-14T01:57:56.665Z,46.20
2018-04-14T02:00:25.698Z,47.80
2018-04-14T02:02:53.952Z,45.40
2018-04-14T02:05:22.263Z,46.40
2018-04-14T02:07:50.527Z,51.10
2018-04-14T02:10:18.921Z,56.80
2018-04-14T02:12:47.155Z,46.70
2018-04-14T02:15:16.282Z,50.20
2018-04-14T02:17:44.563Z,45.53
2018-04-14T02:20:12.897Z,43.73
2018-04-14T02:22:41.216Z,43.17
2018-04-14T02:25:10.294Z,46.73
2018-04-14T02:27:38.549Z,43.33
2018-04-14T02:30:06.812Z,52.70
2018-04-14T02:32:35.128Z,43.07
2018-04-14T02:35:03.376Z,42.27
2018-04-14T02:37:33.226Z,44.33
2018-04-14T02:40:01.481Z,47.47
2018-04-14T02:42:29.740Z,47.67
2018-04-14T02:44:57.982Z,48.03
2018-04-14T02:47:27.024Z,48.77
2018-04-14T02:49:55.319Z,48.37
2018-04-14T02:52:23.729Z,42.90
2018-04-14T02:54:51.946Z,45.47
2018-04-14T02:57:20.220Z,49.20
2018-04-14T02:59:48.497Z,50.50
2018-04-14T03:02:17.522Z,46.80
2018-04-14T03:04:45.825Z,47.27
2018-04-14T03:07:15.033Z,46.90
2018-04-14T03:09:43.295Z,46.37
2018-04-14T03:12:11.533Z,45.30
2018-04-14T03:14:40.533Z,44.53
2018-04-14T03:17:08.865Z,45.87
2018-04-14T03:19:37.172Z,45.80
2018-04-14T03:22:05.415Z,43.10
2018-04-14T03:24:33.641Z,48.33
2018-04-14T03:27:02.752Z,45.67
2018-04-14T03:29:31.958Z,43.50
2018-04-14T03:32:01.006Z,41.80
2018-04-14T03:34:29.260Z,45.37
2018-04-14T03:36:57.628Z,56.60
2018-04-14T03:39:25.895Z,43.87
2018-04-14T03:41:54.188Z,45.13
2018-04-14T03:44:22.544Z,44.43
2018-04-14T03:46:51.567Z,46.33
2018-04-14T03:49:19.881Z,48.60
2018-04-14T03:51:48.164Z,49.63
2018-04-14T03:54:16.528Z,43.93
2018-04-14T03:56:44.775Z,53.73
2018-04-14T03:59:13.842Z,52.50
2018-04-14T04:01:42.065Z,61.90
2018-04-14T04:04:10.833Z,57.93
2018-04-14T04:06:39.067Z,59.63
2018-04-14T04:09:07.388Z,57.10
2018-04-14T04:11:35.676Z,53.57
2018-04-14T04:14:03.927Z,47.63
2018-04-14T04:16:32.233Z,44.33
2018-04-14T04:19:12.448Z,48.13
2018-04-14T04:21:52.750Z,47.53
2018-04-14T04:24:32.582Z,45.43
2018-04-14T04:27:00.623Z,57.97
2018-04-14T04:29:30.010Z,54.17
2018-04-14T04:32:00.059Z,52.90
2018-04-14T04:34:28.940Z,59.50
2018-04-14T04:36:57.725Z,57.80
2018-04-14T04:39:26.519Z,54.70
2018-04-14T04:41:55.283Z,58.70
2018-04-14T04:44:23.449Z,51.50
2018-04-14T04:46:51.484Z,54.07
2018-04-14T04:49:19.509Z,51.13
2018-04-14T04:51:47.967Z,53.60
2018-04-14T04:54:16.044Z,52.80
2018-04-14T04:56:44.088Z,52.20
2018-04-14T04:59:12.156Z,52.43
2018-04-14T05:01:40.934Z,50.63
2018-04-14T05:04:08.982Z,51.80
2018-04-14T05:06:37.103Z,51.07
2018-04-14T05:09:06.060Z,49.17
2018-04-14T05:11:34.113Z,49.43
2018-04-14T05:14:02.290Z,52.63
2018-04-14T05:16:30.394Z,53.90
2018-04-14T05:18:58.443Z,55.30
2018-04-14T05:21:26.482Z,51.40
2018-04-14T05:23:54.512Z,51.37
2018-04-14T05:26:22.522Z,54.00
2018-04-14T05:28:50.597Z,51.40
2018-04-14T05:31:19.369Z,54.40
2018-04-14T05:33:47.370Z,56.60
2018-04-14T05:36:16.162Z,54.53
2018-04-14T05:38:44.937Z,58.60
2018-04-14T05:41:12.988Z,49.63
2018-04-14T05:43:41.015Z,56.40
2018-04-14T05:46:09.065Z,57.23
2018-04-14T05:48:37.116Z,62.93
2018-04-14T05:51:05.148Z,52.30
2018-04-14T05:53:34.247Z,54.20
2018-04-14T05:56:03.152Z,60.37
2018-04-14T05:58:31.283Z,52.77
2018-04-14T06:01:00.517Z,57.13
2018-04-14T06:03:28.599Z,50.13
2018-04-14T06:05:56.624Z,58.00
2018-04-14T06:08:24.701Z,56.70
2018-04-14T06:10:52.899Z,54.90
2018-04-14T06:13:21.033Z,64.67
2018-04-14T06:15:49.084Z,62.80
2018-04-14T06:18:17.890Z,58.57
2018-04-14T06:20:46.391Z,61.23
2018-04-14T06:23:14.459Z,43.57
2018-04-14T06:25:42.464Z,50.40
2018-04-14T06:28:10.561Z,54.37
2018-04-14T06:30:38.597Z,55.07
2018-04-14T06:33:06.797Z,49.40
2018-04-14T06:35:34.840Z,56.57
2018-04-14T06:38:02.847Z,54.93
2018-04-14T06:40:31.704Z,53.17
2018-04-14T06:42:59.788Z,51.53
2018-04-14T06:45:27.833Z,52.47
2018-04-14T06:47:55.891Z,53.47
2018-04-14T06:50:23.979Z,57.73
2018-04-14T06:52:52.190Z,57.17
2018-04-14T06:55:22.073Z,61.80
2018-04-14T06:57:51.768Z,56.40
2018-04-14T07:00:19.916Z,59.40
2018-04-14T07:02:47.846Z,61.87
2018-04-14T07:05:15.864Z,67.50
2018-04-14T07:07:43.899Z,61.23
2018-04-14T07:10:12.020Z,61.47
2018-04-14T07:12:40.095Z,67.27
2018-04-14T07:15:08.137Z,62.27
2018-04-14T07:17:37.047Z,67.80
2018-04-14T07:20:06.083Z,73.23
2018-04-14T07:22:35.656Z,66.27
2018-04-14T07:25:03.737Z,72.97
2018-04-14T07:27:32.586Z,66.23
2018-04-14T07:30:00.698Z,76.47
2018-04-14T07:32:28.861Z,67.93
2018-04-14T07:34:57.035Z,61.90
2018-04-14T07:37:25.114Z,64.97
2018-04-14T07:39:53.240Z,59.93
2018-04-14T07:42:21.463Z,59.30
2018-04-14T07:44:49.519Z,61.10
2018-04-14T07:47:18.368Z,58.67
2018-04-14T07:49:46.525Z,62.10
2018-04-14T07:52:14.515Z,62.70
2018-04-14T07:54:42.638Z,60.63
2018-04-14T07:57:10.717Z,52.33
2018-04-14T07:59:39.488Z,53.13
2018-04-14T08:02:08.409Z,50.93
2018-04-14T08:04:38.056Z,53.73
2018-04-14T08:07:06.174Z,57.27
2018-04-14T08:09:34.238Z,55.70
2018-04-14T08:12:02.348Z,56.13
2018-04-14T08:14:31.178Z,53.50
2018-04-14T08:16:59.371Z,57.10
2018-04-14T08:19:27.437Z,55.23
2018-04-14T08:21:55.487Z,56.17
2018-04-14T08:24:23.957Z,62.87
2018-04-14T08:26:53.064Z,57.53
2018-04-14T08:29:21.161Z,58.77
2018-04-14T08:31:49.248Z,59.90
2018-04-14T08:34:17.306Z,55.50
2018-04-14T08:36:46.987Z,62.03
2018-04-14T08:39:15.874Z,56.40
2018-04-14T08:41:43.926Z,56.00
2018-04-14T08:44:11.949Z,56.17
2018-04-14T08:46:40.843Z,55.17
2018-04-14T08:49:09.629Z,56.60
2018-04-14T08:51:38.532Z,65.37
2018-04-14T08:54:07.320Z,53.23
2018-04-14T08:56:35.375Z,53.43
2018-04-14T08:59:03.467Z,52.33
2018-04-14T09:01:32.248Z,51.27
2018-04-14T09:04:01.056Z,48.00
2018-04-14T09:06:30.706Z,50.37
2018-04-14T09:08:58.879Z,54.30
2018-04-14T09:11:26.958Z,54.40
2018-04-14T09:13:55.139Z,54.70
2018-04-14T09:16:23.240Z,49.70
2018-04-14T09:18:52.273Z,49.20
2018-04-14T09:21:20.545Z,50.67
2018-04-14T09:23:48.879Z,51.53
2018-04-14T09:26:17.189Z,48.67
2018-04-14T09:28:46.217Z,57.23
2018-04-14T09:31:14.595Z,46.87
2018-04-14T09:33:42.863Z,50.30
2018-04-14T09:36:11.158Z,47.20
2018-04-14T09:38:39.430Z,50.90
2018-04-14T09:41:07.688Z,57.60
2018-04-14T09:43:36.768Z,42.93
2018-04-14T09:46:05.861Z,55.20
2018-04-14T09:48:34.905Z,50.90
2018-04-14T09:51:04.364Z,48.97
2018-04-14T09:53:32.616Z,51.27
2018-04-14T09:56:01.788Z,52.93
2018-04-14T09:58:30.080Z,51.80
2018-04-14T10:01:01.250Z,61.23
2018-04-14T10:03:29.678Z,53.17
2018-04-14T10:05:58.711Z,49.17
2018-04-14T10:08:26.957Z,53.93
2018-04-14T10:10:56.077Z,53.90
2018-04-14T10:13:24.925Z,57.00
2018-04-14T10:15:53.992Z,51.90
2018-04-14T10:18:22.313Z,56.23
2018-04-14T10:20:52.276Z,59.50
2018-04-14T10:23:20.540Z,54.03
2018-04-14T10:25:49.682Z,52.47
2018-04-14T10:28:17.993Z,52.13
2018-04-14T10:30:46.247Z,52.47
2018-04-14T10:33:14.511Z,56.80
2018-04-14T10:35:42.776Z,56.80
2018-04-14T10:38:11.055Z,56.37
2018-04-14T10:40:40.110Z,51.97
2018-04-14T10:43:08.357Z,52.23
2018-04-14T10:45:36.668Z,50.97
2018-04-14T10:48:05.712Z,66.33
2018-04-14T10:50:34.035Z,48.80
2018-04-14T10:53:03.882Z,47.80
2018-04-14T10:55:32.921Z,49.17
2018-04-14T10:58:01.202Z,49.47
2018-04-14T11:00:29.562Z,56.87
2018-04-14T11:02:58.562Z,51.30
2018-04-14T11:05:26.840Z,51.80
2018-04-14T11:07:55.250Z,47.67
2018-04-14T11:10:23.575Z,48.87
2018-04-14T11:12:51.988Z,52.83
2018-04-14T11:15:21.316Z,59.83
2018-04-14T11:17:49.606Z,50.93
2018-04-14T11:20:17.889Z,48.20
2018-04-14T11:22:46.132Z,53.77
2018-04-14T11:25:14.433Z,51.97
2018-04-14T11:27:42.712Z,51.13
2018-04-14T11:30:11.009Z,56.60
2018-04-14T11:32:39.289Z,50.93
2018-04-14T11:35:07.539Z,50.67
2018-04-14T11:37:35.830Z,52.40
2018-04-14T11:40:04.087Z,49.43
2018-04-14T11:42:33.133Z,46.73
2018-04-14T11:45:01.442Z,47.60
2018-04-14T11:47:29.828Z,52.30
2018-04-14T11:49:58.062Z,51.63
2018-04-14T11:52:26.343Z,48.07
2018-04-14T11:54:54.667Z,48.40
2018-04-14T11:57:22.904Z,43.43
2018-04-14T11:59:51.177Z,42.73
2018-04-14T12:02:19.641Z,42.33
2018-04-14T12:04:47.832Z,47.90
2018-04-14T12:07:16.113Z,44.67
2018-04-14T12:09:45.287Z,49.00
2018-04-14T12:12:14.318Z,42.70
2018-04-14T12:14:42.589Z,39.93
2018-04-14T12:17:10.856Z,39.27
2018-04-14T12:19:39.930Z,42.10
2018-04-14T12:22:08.483Z,44.77
2018-04-14T12:24:36.732Z,51.17
2018-04-14T12:27:05.005Z,42.67
2018-04-14T12:29:34.063Z,43.73
2018-04-14T12:32:02.392Z,37.53
2018-04-14T12:34:31.439Z,40.00
2018-04-14T12:37:00.436Z,40.67
2018-04-14T12:39:28.733Z,41.83
2018-04-14T12:41:58.613Z,42.47
2018-04-14T12:44:27.854Z,35.50
2018-04-14T12:46:56.082Z,41.60
2018-04-14T12:49:24.515Z,42.10
2018-04-14T12:51:52.904Z,41.13
2018-04-14T12:54:21.217Z,38.67
2018-04-14T12:56:50.261Z,36.60
2018-04-14T12:59:18.516Z,31.47
2018-04-14T13:01:46.790Z,35.33
2018-04-14T13:04:15.045Z,35.47
2018-04-14T13:06:44.667Z,38.50
2018-04-14T13:09:12.941Z,34.17
2018-04-14T13:11:41.967Z,30.87
2018-04-14T13:14:10.222Z,36.03
2018-04-14T13:16:38.556Z,30.60
2018-04-14T13:19:06.853Z,30.00
2018-04-14T13:21:35.082Z,30.77
2018-04-14T13:24:03.337Z,32.20
2018-04-14T13:26:32.385Z,34.33
2018-04-14T13:29:00.716Z,36.37
2018-04-14T13:31:30.861Z,39.77
2018-04-14T13:33:59.862Z,31.33
2018-04-14T13:36:28.140Z,33.00
2018-04-14T13:38:56.401Z,33.10
2018-04-14T13:41:24.710Z,30.40
2018-04-14T13:43:52.999Z,29.47
2018-04-14T13:46:21.260Z,29.30
2018-04-14T13:48:49.536Z,32.73
2018-04-14T13:51:17.828Z,37.37
2018-04-14T13:53:47.652Z,30.80
2018-04-14T13:56:17.497Z,27.80
2018-04-14T13:58:46.805Z,31.33
2018-04-14T14:01:15.208Z,34.43
2018-04-14T14:03:44.502Z,30.00
2018-04-14T14:06:13.725Z,30.07
2018-04-14T14:08:42.816Z,27.93
2018-04-14T14:11:11.052Z,34.60
2018-04-14T14:13:40.272Z,32.10
2018-04-14T14:16:08.564Z,28.60
2018-04-14T14:18:36.804Z,24.63
2018-04-14T14:21:05.196Z,23.40
2018-04-14T14:23:33.617Z,20.53
2018-04-14T14:26:01.901Z,24.67
2018-04-14T14:28:30.162Z,20.13
2018-04-14T14:30:58.775Z,20.90
2018-04-14T14:33:27.861Z,20.70
2018-04-14T14:35:56.105Z,20.90
2018-04-14T14:38:25.224Z,19.00
2018-04-14T14:40:53.625Z,21.90
2018-04-14T14:43:21.854Z,20.70
2018-04-14T14:45:50.121Z,18.07
2018-04-14T14:48:18.380Z,17.33
2018-04-14T14:50:48.086Z,19.00
2018-04-14T14:53:17.375Z,18.57
2018-04-14T14:55:45.659Z,20.10
2018-04-14T14:58:13.942Z,17.07
2018-04-14T15:00:42.180Z,16.23
2018-04-14T15:03:10.438Z,15.83
2018-04-14T15:05:38.716Z,19.50
2018-04-14T15:08:07.023Z,17.53
2018-04-14T15:10:35.270Z,20.27
2018-04-14T15:13:04.301Z,16.67
2018-04-14T15:15:32.589Z,19.93
2018-04-14T15:18:01.072Z,17.40
2018-04-14T15:20:29.393Z,13.73
2018-04-14T15:22:57.661Z,14.33
2018-04-14T15:25:25.973Z,17.97
2018-04-14T15:27:55.703Z,17.07
2018-04-14T15:30:23.976Z,24.23
2018-04-14T15:32:52.279Z,19.67
2018-04-14T15:35:21.438Z,23.50
2018-04-14T15:37:49.782Z,27.27
2018-04-14T15:40:18.117Z,29.23
2018-04-14T15:42:46.359Z,26.23
2018-04-14T15:45:14.611Z,23.23
2018-04-14T15:47:43.038Z,25.03
2018-04-14T15:50:12.218Z,28.87
2018-04-14T15:52:40.537Z,27.30
2018-04-14T15:55:09.561Z,22.17
2018-04-14T15:57:38.046Z,34.83
2018-04-14T16:00:06.397Z,26.60
2018-04-14T16:02:34.717Z,22.10
2018-04-14T16:05:03.743Z,28.00
2018-04-14T16:07:32.024Z,19.63
2018-04-14T16:10:00.286Z,20.93
2018-04-14T16:12:28.589Z,23.67
2018-04-14T16:14:56.877Z,26.87
2018-04-14T16:17:25.854Z,23.90
2018-04-14T16:19:55.952Z,24.00
2018-04-14T16:22:24.216Z,25.33
2018-04-14T16:24:52.550Z,23.60
2018-04-14T16:27:20.828Z,25.93
2018-04-14T16:29:49.800Z,23.10
2018-04-14T16:32:18.069Z,26.30
2018-04-14T16:34:46.324Z,25.67
2018-04-14T16:37:15.362Z,23.03
2018-04-14T16:39:43.647Z,23.10
2018-04-14T16:42:11.904Z,20.93
2018-04-14T16:44:40.211Z,23.70
2018-04-14T16:47:08.529Z,29.10
2018-04-14T16:49:36.918Z,25.17
2018-04-14T16:52:05.140Z,23.63
2018-04-14T16:54:33.428Z,25.47
2018-04-14T16:57:01.725Z,27.00
2018-04-14T16:59:30.921Z,25.30
2018-04-14T17:02:00.059Z,27.20
2018-04-14T17:04:28.275Z,27.90
2018-04-14T17:06:57.349Z,27.83
2018-04-14T17:09:26.365Z,22.47
2018-04-14T17:11:54.627Z,21.10
2018-04-14T17:14:22.918Z,21.27
2018-04-14T17:16:51.940Z,21.40
2018-04-14T17:19:20.373Z,21.27
2018-04-14T17:21:48.656Z,19.23
2018-04-14T17:24:17.921Z,19.23
2018-04-14T17:26:46.165Z,23.77
2018-04-14T17:29:15.191Z,24.60
2018-04-14T17:31:43.471Z,29.23
2018-04-14T17:34:11.716Z,22.73
2018-04-14T17:36:40.952Z,29.30
2018-04-14T17:39:09.225Z,27.03
2018-04-14T17:41:37.925Z,35.70
2018-04-14T17:44:06.191Z,34.97
2018-04-14T17:46:34.540Z,38.10
2018-04-14T17:49:04.869Z,36.30
2018-04-14T17:51:35.184Z,36.27
2018-04-14T17:54:04.208Z,35.53
2018-04-14T17:56:33.881Z,33.83
2018-04-14T17:59:02.136Z,35.73
2018-04-14T18:01:30.409Z,35.83
2018-04-14T18:03:58.686Z,36.10
2018-04-14T18:06:26.981Z,41.70
2018-04-14T18:08:56.003Z,42.73
2018-04-14T18:11:25.501Z,36.30
2018-04-14T18:13:53.770Z,33.40
2018-04-14T18:16:21.997Z,38.17
2018-04-14T18:18:51.012Z,37.80
2018-04-14T18:21:20.113Z,37.77
2018-04-14T18:23:48.407Z,38.97
2018-04-14T18:26:18.503Z,38.77
2018-04-14T18:28:47.740Z,39.10
2018-04-14T18:31:16.008Z,36.27
2018-04-14T18:33:45.057Z,35.63
2018-04-14T18:36:13.319Z,36.40
2018-04-14T18:38:41.733Z,33.17
2018-04-14T18:41:09.960Z,34.47
2018-04-14T18:43:38.239Z,35.80
2018-04-14T18:46:06.506Z,35.50
2018-04-14T18:48:36.397Z,40.43
2018-04-14T18:51:05.413Z,38.93
2018-04-14T18:53:33.717Z,39.37
2018-04-14T18:56:01.995Z,41.10
2018-04-14T18:58:30.290Z,38.43
2018-04-14T19:00:58.547Z,45.50
2018-04-14T19:03:26.833Z,41.20
2018-04-14T19:05:55.110Z,43.40
2018-04-14T19:08:23.414Z,44.47
2018-04-14T19:10:51.729Z,44.90
2018-04-14T19:13:20.044Z,42.20
2018-04-14T19:15:48.970Z,45.57
2018-04-14T19:18:17.232Z,47.30
2018-04-14T19:20:45.532Z,42.37
2018-04-14T19:23:14.645Z,44.47
2018-04-14T19:25:42.941Z,46.17
2018-04-14T19:28:11.205Z,50.03
2018-04-14T19:30:39.513Z,47.87
2018-04-14T19:33:09.330Z,55.40
2018-04-14T19:35:37.643Z,45.17
2018-04-14T19:38:06.662Z,47.40
2018-04-14T19:40:35.716Z,49.90
2018-04-14T19:43:05.466Z,50.87
2018-04-14T19:45:33.741Z,48.50
2018-04-14T19:48:02.086Z,51.27
2018-04-14T19:50:30.285Z,52.20
2018-04-14T19:52:59.318Z,46.90
2018-04-14T19:55:27.624Z,51.67
2018-04-14T19:57:55.924Z,46.03
2018-04-14T20:00:24.990Z,54.43
2018-04-14T20:02:53.359Z,53.20
2018-04-14T20:05:21.673Z,48.80
2018-04-14T20:07:49.944Z,53.53
2018-04-14T20:10:18.240Z,52.23
2018-04-14T20:12:46.611Z,51.20
2018-04-14T20:15:14.871Z,48.70
2018-04-14T20:17:43.115Z,48.77
2018-04-14T20:20:12.159Z,48.10
2018-04-14T20:22:40.423Z,51.30
2018-04-14T20:25:09.707Z,52.23
2018-04-14T20:27:38.136Z,54.07
2018-04-14T20:30:08.506Z,51.07
2018-04-14T20:32:39.115Z,46.33
2018-04-14T20:35:08.216Z,59.00
2018-04-14T20:37:37.247Z,51.47
2018-04-14T20:40:05.539Z,57.37
2018-04-14T20:42:33.853Z,48.83
2018-04-14T20:45:02.144Z,49.03
2018-04-14T20:47:30.459Z,54.57
2018-04-14T20:50:00.259Z,51.47
2018-04-14T20:52:28.504Z,53.37
2018-04-14T20:54:56.782Z,56.93
2018-04-14T20:57:25.080Z,54.67
2018-04-14T20:59:55.355Z,51.20
2018-04-14T21:02:24.435Z,55.10
2018-04-14T21:04:53.473Z,53.80
2018-04-14T21:07:23.841Z,54.27
2018-04-14T21:09:52.113Z,52.25
2018-04-14T21:12:21.161Z,53.23
2018-04-14T21:14:50.182Z,56.03
2018-04-14T21:17:18.483Z,53.00
2018-04-14T21:19:46.789Z,50.47
2018-04-14T21:22:15.993Z,53.80
2018-04-14T21:24:45.293Z,55.03
2018-04-14T21:27:14.314Z,54.60
2018-04-14T21:29:43.461Z,50.37
2018-04-14T21:32:11.773Z,50.73
2018-04-14T21:34:40.806Z,50.70
2018-04-14T21:37:09.081Z,54.97
2018-04-14T21:39:37.389Z,51.50
2018-04-14T21:42:05.656Z,51.37
2018-04-14T21:44:33.950Z,54.60
2018-04-14T21:47:03.028Z,53.53
2018-04-14T21:49:31.376Z,54.40
2018-04-14T21:51:59.620Z,56.20
2018-04-14T21:54:27.905Z,53.63
2018-04-14T21:56:56.154Z,56.13
2018-04-14T21:59:24.461Z,55.80
2018-04-14T22:01:52.725Z,50.30
2018-04-14T22:04:20.974Z,53.70
2018-04-14T22:06:50.106Z,51.60
2018-04-14T22:09:18.416Z,55.40
2018-04-14T22:11:46.660Z,56.20
2018-04-14T22:14:26.885Z,61.07
2018-04-14T22:16:55.219Z,52.03
2018-04-14T22:19:23.533Z,49.10
2018-04-14T22:21:51.792Z,51.07
2018-04-14T22:24:20.073Z,53.40
2018-04-14T22:26:49.219Z,56.00
2018-04-14T22:29:18.354Z,59.03
2018-04-14T22:31:46.613Z,56.63
2018-04-14T22:34:14.986Z,57.17
2018-04-14T22:36:44.005Z,57.03
2018-04-14T22:39:12.264Z,57.90
2018-04-14T22:41:40.563Z,51.57
2018-04-14T22:44:08.846Z,51.70
2018-04-14T22:46:37.140Z,56.57
2018-04-14T22:49:05.392Z,56.20
2018-04-14T22:51:33.683Z,57.37
2018-04-14T22:54:01.952Z,58.47
2018-04-14T22:56:31.008Z,55.23
2018-04-14T22:59:00.115Z,56.80
2018-04-14T23:01:28.400Z,55.77
2018-04-14T23:03:57.460Z,59.57
2018-04-14T23:06:25.849Z,57.27
2018-04-14T23:08:54.728Z,57.17
2018-04-14T23:11:22.998Z,58.87
2018-04-14T23:13:52.056Z,61.70
2018-04-14T23:16:20.437Z,55.03
2018-04-14T23:18:50.263Z,57.83
2018-04-14T23:21:18.492Z,59.17
2018-04-14T23:23:46.776Z,59.40
2018-04-14T23:26:15.051Z,58.30
2018-04-14T23:28:43.332Z,64.20
2018-04-14T23:31:11.580Z,61.77
2018-04-14T23:33:43.201Z,56.03
2018-04-14T23:36:11.460Z,57.00
2018-04-14T23:38:39.824Z,61.50
2018-04-14T23:41:08.151Z,55.27
2018-04-14T23:43:36.901Z,57.97
2018-04-14T23:46:05.159Z,54.13
2018-04-14T23:48:33.444Z,52.83
2018-04-14T23:51:02.497Z,53.57
2018-04-14T23:53:31.675Z,67.13
2018-04-14T23:55:59.941Z,60.40
2018-04-14T23:58:28.204Z,54.60
